Rain From: 21-07-2018 02:00 Until: 16:00 warning for: Rain Level: Yellow info button
suomi:
Sadevaroitus: Aamuyöstä alkaen voi sataa rankasti, yli 20 mm tunnissa.

svenska:
Nederbördsvarning: Från och med efternatten kan det förekomma synnerligen riklig nederbörd, mer än 20 mm i timmen.

english:
Heavy rain warning: From the early morning on heavy rain of more than 20 mm per hour can be expected. 

Forest fire From: 20-07-2018 23:00 Until: 21-07-2018 11:00 warning for: Forest fire Level: Yellow info button
suomi:
Metsäpalovaroitus on voimassa.

svenska:
Varning för skogsbrand gäller.

english:
A forest fire warning is in force. 


Thunder radar more information blitzortung!


Löydät sääaseman tiedot myös:

European Weather Network

Finland Weather Exchange

Weather Underground

AWEKAS



Weather Underground säähistoriasivu

Päivittäin yhteenveto Elokuu 4, 2017 Yksiköt:  Metriset    Englantilaiset   Molemmat
« Edellinen Päivä
Seuraava Päivä »
Päivittäin Viikoittain Kuukausittain Vuosittain Mukautettu
  Korkea: Matala: Keskiarvo:
Lämpötila: -17.8 °C -13.6 °C -10.1 °C
Kastepiste: -17.8 °C -13.9 °C -11.1 °C
Kosteus: Humidity % 72 % 89 %
Tuulen nopeus: 0 km/h 0 km/h 0.3 km/h
Tuulenpuuska: 0 km/h - -
Tuuli:- - SE
Ilmanpaine: 0 hPa 33650.1 hPa -
Sade: 83.82 mm    
Historical Graphs
 
 
Taulukkotiedot Elokuu 4, 2017
Aika Lämpötila Kastepiste Ilmanpaine Tuuli Tuulen nopeus Tuulenpuuska Kosteus Sademäärä (tunneittain)
-17.8 °C -17.8 °C 0 hPa Calm     Humidity % 0 mm
00:00 -10.7 °C -11.4 °C 34029.3 hPa Calm     92 % 0 mm
00:15 -10.9 °C -11.6 °C 34029.3 hPa Calm     92 % 0 mm
00:30 -11.2 °C -11.9 °C 34029.3 hPa Calm     92 % 0 mm
00:45 -11.3 °C -11.9 °C 34015.8 hPa Calm     93 % 0 mm
01:00 -11.6 °C -12.1 °C 34029.3 hPa Calm     94 % 0 mm
01:15 -11.8 °C -12.4 °C 34015.8 hPa Calm     93 % 0 mm
01:30 -11.9 °C -12.4 °C 34015.8 hPa Calm     94 % 0 mm
01:45 -12.1 °C -12.6 °C 34005.6 hPa Calm     94 % 0 mm
02:00 -12.2 °C -12.7 °C 33992.1 hPa Calm     94 % 0 mm
02:15 -12.4 °C -12.8 °C 33992.1 hPa Calm     95 % 0 mm
02:30 -12.4 °C -12.8 °C 33992.1 hPa Calm     95 % 0 mm
02:45 -12.6 °C -13 °C 33992.1 hPa Calm     95 % 0 mm
03:00 -12.7 °C -13.1 °C 33992.1 hPa Calm     95 % 0 mm
03:15 -12.7 °C -13.1 °C 33981.9 hPa Calm     96 % 0 mm
03:30 -12.8 °C -13.3 °C 33981.9 hPa Calm     95 % 0 mm
03:45 -12.9 °C -13.2 °C 33971.7 hPa Calm     96 % 0 mm
04:00 -13 °C -13.3 °C 33971.7 hPa Calm     96 % 0 mm
04:30 -13.2 °C -13.6 °C 33958.2 hPa Calm     96 % 0 mm
04:45 -13.3 °C -13.6 °C 33948 hPa Calm     96 % 0 mm
05:00 -13.4 °C -13.7 °C 33948 hPa Calm     96 % 0 mm
05:15 -13.5 °C -13.8 °C 33937.9 hPa Calm     96 % 0 mm
05:30 -13.5 °C -13.8 °C 33937.9 hPa Calm     96 % 0 mm
05:45 -13.6 °C -13.9 °C 33924.3 hPa Calm     96 % 0 mm
06:00 -13.6 °C -13.8 °C 33924.3 hPa Calm     97 % 0 mm
06:30 -13.3 °C -13.6 °C 33914.2 hPa Calm     97 % 0 mm
06:45 -13.1 °C -13.3 °C 33914.2 hPa Calm     97 % 0 mm
07:00 -12.8 °C -13.1 °C 33914.2 hPa Calm     97 % 0 mm
07:30 -12.4 °C -12.6 °C 33900.6 hPa Calm     98 % 0 mm
07:45 -12.3 °C -12.5 °C 33890.5 hPa Calm     98 % 0 mm
08:00 -12.1 °C -12.3 °C 33890.5 hPa Calm     98 % 0 mm
08:15 -11.9 °C -12.1 °C 33880.3 hPa Calm     98 % 0 mm
08:30 -11.7 °C -11.9 °C 33880.3 hPa Calm     98 % 0 mm
08:45 -11.4 °C -11.6 °C 33866.8 hPa Calm     98 % 0 mm
09:00 -11.2 °C -11.3 °C 33866.8 hPa Calm     98 % 0 mm
09:15 -10.8 °C -11 °C 33856.6 hPa Calm     98 % 0 mm
09:30 -10.4 °C -10.6 °C 33856.6 hPa Calm     98 % 0 mm
09:45 -10.1 °C -10.3 °C 33843.1 hPa Calm     98 % 0 mm
10:00 -9.7 °C -9.9 °C 33843.1 hPa Calm     98 % 0 mm
10:15 -9.4 °C -9.7 °C 33832.9 hPa Calm     97 % 0 mm
10:30 -9.1 °C -9.4 °C 33832.9 hPa Calm   2.6 km/h 96 % 0 mm
10:45 -8.8 °C -9.6 °C 33822.8 hPa Calm   2.6 km/h 92 % 0 mm
11:00 -8.6 °C -9.6 °C 33809.2 hPa Calm   10.3 km/h 89 % 0 mm
11:15 -8.4 °C -9.4 °C 33809.2 hPa Calm   5.1 km/h 89 % 0 mm
11:30 -8.2 °C -9.4 °C 33799.1 hPa Calm   10.3 km/h 86 % 0 mm
11:45 -7.8 °C -9.4 °C 33799.1 hPa Calm   10.3 km/h 84 % 0 mm
12:00 -7.4 °C -9.2 °C 33788.9 hPa Calm   10.3 km/h 82 % 0 mm
12:15 -7.1 °C -9.2 °C 33775.4 hPa Calm   10.3 km/h 79 % 0 mm
12:30 -6.8 °C -9.4 °C 33775.4 hPa Calm   5.1 km/h 74 % 0 mm
12:45 -7.1 °C -9.4 °C 33765.2 hPa Calm   10.3 km/h 76 % 0 mm
13:00 -7.1 °C -9.6 °C 33765.2 hPa Calm   5.1 km/h 75 % 0 mm
13:15 -7.2 °C -9.3 °C 33765.2 hPa Calm   5.1 km/h 79 % 0 mm
13:30 -7.2 °C -9.6 °C 33751.6 hPa Calm   10.3 km/h 76 % 0 mm
13:45 -7.2 °C -9.6 °C 33751.6 hPa Calm   10.3 km/h 76 % 0 mm
14:00 -7.1 °C -9.4 °C 33751.6 hPa Calm   12.9 km/h 77 % 0 mm
14:15 -7.1 °C -9.4 °C 33741.5 hPa Calm   10.3 km/h 77 % 0 mm
14:30 -7.1 °C -9.4 °C 33741.5 hPa Calm   7.7 km/h 76 % 0 mm
14:45 -6.9 °C -9.1 °C 33731.3 hPa Calm   10.3 km/h 78 % 0 mm
15:00 -6.9 °C -9.7 °C 33731.3 hPa Calm   10.3 km/h 73 % 0 mm
15:15 -6.8 °C -9.4 °C 33731.3 hPa Calm   18.2 km/h 75 % 0 mm
15:30 -6.9 °C -9.7 °C 33717.8 hPa NNE 2.6 km/h 15.6 km/h 73 % 0 mm
15:45 -6.9 °C -9.7 °C 33707.6 hPa Calm   7.7 km/h 73 % 0 mm
16:00 -6.9 °C -9.6 °C 33707.6 hPa Calm   15.6 km/h 74 % 0 mm
16:15 -7.1 °C -10 °C 33707.6 hPa Calm   10.3 km/h 72 % 0 mm
16:30 -7.3 °C -9.7 °C 33694.1 hPa Calm   5.1 km/h 76 % 0 mm
16:45 -7.3 °C -9.8 °C 33694.1 hPa SE 2.6 km/h 18.2 km/h 75 % 0 mm
17:00 -7.4 °C -9.8 °C 33694.1 hPa South 5.1 km/h 20.8 km/h 76 % 0 mm
17:15 -7.6 °C -9.7 °C 33694.1 hPa Calm   2.6 km/h 79 % 0 mm
17:30 -7.7 °C -9.4 °C 33694.1 hPa Calm     82 % 0 mm
17:45 -7.9 °C -9.5 °C 33694.1 hPa ESE 2.6 km/h 12.9 km/h 84 % 0 mm
18:00 -8.1 °C -9.6 °C 33694.1 hPa South 2.6 km/h 15.6 km/h 85 % 0 mm
18:15 -8.3 °C -9.8 °C 33694.1 hPa SE 2.6 km/h 20.8 km/h 84 % 0 mm
18:30 -8.6 °C -10.1 °C 33694.1 hPa ESE 2.6 km/h 15.6 km/h 84 % 0 mm
18:45 -8.7 °C -10.1 °C 33694.1 hPa SE 2.6 km/h 12.9 km/h 85 % 0 mm
19:00 -8.8 °C -10.1 °C 33694.1 hPa Calm   10.3 km/h 87 % 0 mm
19:15 -8.9 °C -10.1 °C 33683.9 hPa Calm   5.1 km/h 88 % 0 mm
19:30 -9.1 °C -10.1 °C 33683.9 hPa Calm   7.7 km/h 89 % 7.62 mm
19:45 -9.3 °C -10.1 °C 33683.9 hPa Calm   5.1 km/h 91 % 12.7 mm
20:00 -9.5 °C -10.2 °C 33683.9 hPa Calm   5.1 km/h 92 % 12.7 mm
20:15 -9.7 °C -10.3 °C 33683.9 hPa Calm   7.7 km/h 93 % 20.32 mm
20:30 -9.8 °C -10.3 °C 33683.9 hPa Calm     94 % 20.32 mm
20:45 -9.9 °C -10.4 °C 33673.8 hPa Calm     94 % 20.32 mm
21:00 -9.9 °C -10.4 °C 33673.8 hPa Calm     95 % 25.4 mm
21:30 -10.1 °C -10.6 °C 33660.2 hPa Calm     95 % 20.32 mm
22:00 -10.2 °C -10.6 °C 33660.2 hPa Calm     96 % 20.32 mm
22:15 -10.2 °C -10.6 °C 33660.2 hPa Calm     96 % 20.32 mm
22:30 -10.2 °C -10.6 °C 33660.2 hPa Calm     96 % 12.7 mm
22:45 -10.2 °C -10.6 °C 33660.2 hPa Calm   2.6 km/h 96 % 12.7 mm
23:00 -10.2 °C -10.6 °C 33660.2 hPa Calm     96 % 12.7 mm
23:15 -10.2 °C -10.6 °C 33650.1 hPa Calm     96 % 12.7 mm
23:30 -10.2 °C -10.5 °C 33650.1 hPa Calm     97 % 12.7 mm
23:45 -10.2 °C -10.4 °C 33650.1 hPa Calm     97 % 20.32 mm
Esan sääasema
Terveisin Weather Underground - 2.75 mb

Alkuperäinen skripti  Jim McMurry - jmcmurry@mwt.net Sovitettu myös templatelle  Wim van der Kuil - Leuven-Template.eu

Laitteet joita käytämme:

Sääasema
Davis VP2

Sääasemaohjelma
Cumulus

Sääaseman tietokone
Asus EeePC

Palveluntarjoaja
Suncomet

Davis VP2

Cumulus

Asus EeePC

Suncomet